sensor_id;sensor_type;location;lat;lon;timestamp;P1;durP1;ratioP1;P2;durP2;ratioP2
3004;SDS011;1512;51.486;6.610;2023-04-07T00:03:41;12.60;;;8.33;;
3004;SDS011;1512;51.486;6.610;2023-04-07T00:07:50;10.40;;;8.77;;
3004;SDS011;1512;51.486;6.610;2023-04-07T00:12:00;10.93;;;8.47;;
3004;SDS011;1512;51.486;6.610;2023-04-07T00:16:09;10.23;;;8.60;;
3004;SDS011;1512;51.486;6.610;2023-04-07T00:20:18;9.63;;;7.97;;
3004;SDS011;1512;51.486;6.610;2023-04-07T00:24:27;14.57;;;8.63;;
3004;SDS011;1512;51.486;6.610;2023-04-07T00:28:37;11.40;;;8.20;;
3004;SDS011;1512;51.486;6.610;2023-04-07T00:32:45;11.23;;;8.20;;
3004;SDS011;1512;51.486;6.610;2023-04-07T00:36:55;11.47;;;8.97;;
3004;SDS011;1512;51.486;6.610;2023-04-07T00:41:03;12.70;;;9.80;;
3004;SDS011;1512;51.486;6.610;2023-04-07T00:45:12;12.33;;;9.73;;
3004;SDS011;1512;51.486;6.610;2023-04-07T00:49:21;15.37;;;10.00;;
3004;SDS011;1512;51.486;6.610;2023-04-07T00:53:30;14.97;;;9.40;;
3004;SDS011;1512;51.486;6.610;2023-04-07T00:57:39;10.90;;;9.57;;
3004;SDS011;1512;51.486;6.610;2023-04-07T01:06:19;16.37;;;10.90;;
3004;SDS011;1512;51.486;6.610;2023-04-07T01:10:43;13.80;;;10.33;;
3004;SDS011;1512;51.486;6.610;2023-04-07T01:14:57;15.87;;;10.67;;
3004;SDS011;1512;51.486;6.610;2023-04-07T01:23:40;19.60;;;12.40;;
3004;SDS011;1512;51.486;6.610;2023-04-07T01:32:09;20.67;;;12.80;;
3004;SDS011;1512;51.486;6.610;2023-04-07T01:36:19;18.53;;;12.83;;
3004;SDS011;1512;51.486;6.610;2023-04-07T01:40:29;18.57;;;12.13;;
3004;SDS011;1512;51.486;6.610;2023-04-07T01:44:39;28.97;;;15.03;;
3004;SDS011;1512;51.486;6.610;2023-04-07T01:48:49;22.23;;;12.10;;
3004;SDS011;1512;51.486;6.610;2023-04-07T01:52:59;22.20;;;12.97;;
3004;SDS011;1512;51.486;6.610;2023-04-07T01:57:10;24.27;;;13.90;;
3004;SDS011;1512;51.486;6.610;2023-04-07T02:01:19;25.80;;;13.57;;
3004;SDS011;1512;51.486;6.610;2023-04-07T02:05:28;25.43;;;13.17;;
3004;SDS011;1512;51.486;6.610;2023-04-07T02:09:38;23.47;;;13.07;;
3004;SDS011;1512;51.486;6.610;2023-04-07T02:13:49;24.00;;;11.83;;
3004;SDS011;1512;51.486;6.610;2023-04-07T02:18:00;22.43;;;12.80;;
3004;SDS011;1512;51.486;6.610;2023-04-07T02:22:11;25.53;;;12.87;;
3004;SDS011;1512;51.486;6.610;2023-04-07T02:26:21;24.67;;;13.47;;
3004;SDS011;1512;51.486;6.610;2023-04-07T02:30:30;26.90;;;15.20;;
3004;SDS011;1512;51.486;6.610;2023-04-07T02:34:39;20.90;;;13.20;;
3004;SDS011;1512;51.486;6.610;2023-04-07T02:38:48;23.97;;;12.67;;
3004;SDS011;1512;51.486;6.610;2023-04-07T02:42:57;23.27;;;13.27;;
3004;SDS011;1512;51.486;6.610;2023-04-07T02:47:06;20.93;;;11.20;;
3004;SDS011;1512;51.486;6.610;2023-04-07T02:51:16;23.33;;;12.40;;
3004;SDS011;1512;51.486;6.610;2023-04-07T02:55:24;23.20;;;11.80;;
3004;SDS011;1512;51.486;6.610;2023-04-07T02:59:33;20.20;;;10.90;;
3004;SDS011;1512;51.486;6.610;2023-04-07T03:03:42;20.27;;;11.57;;
3004;SDS011;1512;51.486;6.610;2023-04-07T03:07:51;17.03;;;11.57;;
3004;SDS011;1512;51.486;6.610;2023-04-07T03:11:59;17.90;;;10.77;;
3004;SDS011;1512;51.486;6.610;2023-04-07T03:16:09;18.33;;;11.17;;
3004;SDS011;1512;51.486;6.610;2023-04-07T03:20:17;14.60;;;9.77;;
3004;SDS011;1512;51.486;6.610;2023-04-07T03:24:26;18.47;;;10.43;;
3004;SDS011;1512;51.486;6.610;2023-04-07T03:28:35;19.93;;;9.60;;
3004;SDS011;1512;51.486;6.610;2023-04-07T03:32:43;19.90;;;10.10;;
3004;SDS011;1512;51.486;6.610;2023-04-07T03:36:52;15.43;;;9.40;;
3004;SDS011;1512;51.486;6.610;2023-04-07T03:41:01;16.43;;;10.53;;
3004;SDS011;1512;51.486;6.610;2023-04-07T03:45:10;17.00;;;8.90;;
3004;SDS011;1512;51.486;6.610;2023-04-07T03:49:18;20.17;;;10.73;;
3004;SDS011;1512;51.486;6.610;2023-04-07T03:53:28;15.80;;;10.07;;
3004;SDS011;1512;51.486;6.610;2023-04-07T03:57:36;19.60;;;9.70;;
3004;SDS011;1512;51.486;6.610;2023-04-07T04:01:45;13.53;;;8.30;;
3004;SDS011;1512;51.486;6.610;2023-04-07T04:05:54;12.63;;;8.50;;
3004;SDS011;1512;51.486;6.610;2023-04-07T04:10:03;15.07;;;8.57;;
3004;SDS011;1512;51.486;6.610;2023-04-07T04:14:12;11.53;;;8.50;;
3004;SDS011;1512;51.486;6.610;2023-04-07T04:22:31;11.83;;;8.70;;
3004;SDS011;1512;51.486;6.610;2023-04-07T04:26:39;14.73;;;8.90;;
3004;SDS011;1512;51.486;6.610;2023-04-07T04:30:48;16.87;;;8.90;;
3004;SDS011;1512;51.486;6.610;2023-04-07T04:34:57;13.53;;;6.87;;
3004;SDS011;1512;51.486;6.610;2023-04-07T04:39:06;14.50;;;7.30;;
3004;SDS011;1512;51.486;6.610;2023-04-07T04:43:15;17.23;;;8.43;;
3004;SDS011;1512;51.486;6.610;2023-04-07T04:47:23;16.73;;;7.93;;
3004;SDS011;1512;51.486;6.610;2023-04-07T04:51:33;27.40;;;9.27;;
3004;SDS011;1512;51.486;6.610;2023-04-07T04:55:41;14.80;;;7.97;;
3004;SDS011;1512;51.486;6.610;2023-04-07T04:59:52;16.00;;;7.53;;
3004;SDS011;1512;51.486;6.610;2023-04-07T05:04:00;14.43;;;8.93;;
3004;SDS011;1512;51.486;6.610;2023-04-07T05:08:09;16.47;;;10.30;;
3004;SDS011;1512;51.486;6.610;2023-04-07T05:12:18;15.20;;;8.93;;
3004;SDS011;1512;51.486;6.610;2023-04-07T05:16:27;19.70;;;8.63;;
3004;SDS011;1512;51.486;6.610;2023-04-07T05:20:36;13.03;;;8.27;;
3004;SDS011;1512;51.486;6.610;2023-04-07T05:24:45;12.60;;;7.93;;
3004;SDS011;1512;51.486;6.610;2023-04-07T05:28:53;10.97;;;6.97;;
3004;SDS011;1512;51.486;6.610;2023-04-07T05:33:02;14.57;;;9.10;;
3004;SDS011;1512;51.486;6.610;2023-04-07T05:37:11;10.50;;;7.23;;
3004;SDS011;1512;51.486;6.610;2023-04-07T05:41:20;12.73;;;7.40;;
3004;SDS011;1512;51.486;6.610;2023-04-07T05:45:29;12.03;;;7.20;;
3004;SDS011;1512;51.486;6.610;2023-04-07T05:49:37;10.57;;;7.03;;
3004;SDS011;1512;51.486;6.610;2023-04-07T05:53:48;12.23;;;7.27;;
3004;SDS011;1512;51.486;6.610;2023-04-07T05:57:57;14.73;;;7.80;;
3004;SDS011;1512;51.486;6.610;2023-04-07T06:02:06;23.50;;;9.10;;
3004;SDS011;1512;51.486;6.610;2023-04-07T06:06:15;12.40;;;7.07;;
3004;SDS011;1512;51.486;6.610;2023-04-07T06:10:24;13.40;;;6.80;;
3004;SDS011;1512;51.486;6.610;2023-04-07T06:14:32;11.53;;;6.50;;
3004;SDS011;1512;51.486;6.610;2023-04-07T06:18:41;8.65;;;6.22;;
3004;SDS011;1512;51.486;6.610;2023-04-07T06:22:50;12.33;;;8.27;;
3004;SDS011;1512;51.486;6.610;2023-04-07T06:26:59;11.13;;;6.57;;
3004;SDS011;1512;51.486;6.610;2023-04-07T06:31:08;11.90;;;7.00;;
3004;SDS011;1512;51.486;6.610;2023-04-07T06:35:17;11.40;;;7.10;;
3004;SDS011;1512;51.486;6.610;2023-04-07T06:39:26;9.60;;;7.10;;
3004;SDS011;1512;51.486;6.610;2023-04-07T06:43:36;13.07;;;6.63;;
3004;SDS011;1512;51.486;6.610;2023-04-07T06:47:45;11.17;;;6.50;;
3004;SDS011;1512;51.486;6.610;2023-04-07T06:51:54;11.23;;;6.87;;
3004;SDS011;1512;51.486;6.610;2023-04-07T06:56:06;9.83;;;6.03;;
3004;SDS011;1512;51.486;6.610;2023-04-07T07:00:16;15.77;;;8.20;;
3004;SDS011;1512;51.486;6.610;2023-04-07T07:04:25;12.70;;;7.07;;
3004;SDS011;1512;51.486;6.610;2023-04-07T07:08:34;10.57;;;7.13;;
3004;SDS011;1512;51.486;6.610;2023-04-07T07:12:43;17.87;;;8.40;;
3004;SDS011;1512;51.486;6.610;2023-04-07T07:16:52;14.30;;;8.57;;
3004;SDS011;1512;51.486;6.610;2023-04-07T07:21:00;13.20;;;7.73;;
3004;SDS011;1512;51.486;6.610;2023-04-07T07:25:09;18.00;;;9.30;;
3004;SDS011;1512;51.486;6.610;2023-04-07T07:29:18;20.30;;;8.33;;
3004;SDS011;1512;51.486;6.610;2023-04-07T07:33:27;13.83;;;8.80;;
3004;SDS011;1512;51.486;6.610;2023-04-07T07:37:36;15.67;;;8.53;;
3004;SDS011;1512;51.486;6.610;2023-04-07T07:41:45;15.90;;;8.70;;
3004;SDS011;1512;51.486;6.610;2023-04-07T07:45:54;15.57;;;8.53;;
3004;SDS011;1512;51.486;6.610;2023-04-07T07:50:03;18.13;;;9.30;;
3004;SDS011;1512;51.486;6.610;2023-04-07T07:54:12;12.67;;;7.77;;
3004;SDS011;1512;51.486;6.610;2023-04-07T07:58:21;14.70;;;6.80;;
3004;SDS011;1512;51.486;6.610;2023-04-07T08:02:30;14.07;;;8.30;;
3004;SDS011;1512;51.486;6.610;2023-04-07T08:06:40;19.90;;;9.53;;
3004;SDS011;1512;51.486;6.610;2023-04-07T08:10:48;12.13;;;7.83;;
3004;SDS011;1512;51.486;6.610;2023-04-07T08:14:57;17.80;;;8.50;;
3004;SDS011;1512;51.486;6.610;2023-04-07T08:19:13;12.27;;;8.97;;
3004;SDS011;1512;51.486;6.610;2023-04-07T08:23:22;13.83;;;8.23;;
3004;SDS011;1512;51.486;6.610;2023-04-07T08:27:30;13.20;;;8.73;;
3004;SDS011;1512;51.486;6.610;2023-04-07T08:31:39;14.90;;;8.30;;
3004;SDS011;1512;51.486;6.610;2023-04-07T08:35:48;14.73;;;7.53;;
3004;SDS011;1512;51.486;6.610;2023-04-07T08:39:57;12.80;;;7.90;;
3004;SDS011;1512;51.486;6.610;2023-04-07T08:44:06;16.83;;;10.50;;
3004;SDS011;1512;51.486;6.610;2023-04-07T08:48:20;12.40;;;7.90;;
3004;SDS011;1512;51.486;6.610;2023-04-07T08:52:54;18.73;;;10.83;;
3004;SDS011;1512;51.486;6.610;2023-04-07T08:56:48;16.87;;;9.43;;
3004;SDS011;1512;51.486;6.610;2023-04-07T09:00:57;15.00;;;9.93;;
3004;SDS011;1512;51.486;6.610;2023-04-07T09:05:07;18.67;;;9.90;;
3004;SDS011;1512;51.486;6.610;2023-04-07T09:09:16;15.50;;;9.07;;
3004;SDS011;1512;51.486;6.610;2023-04-07T09:13:25;16.13;;;9.10;;
3004;SDS011;1512;51.486;6.610;2023-04-07T09:17:33;16.43;;;8.37;;
3004;SDS011;1512;51.486;6.610;2023-04-07T09:21:49;17.87;;;11.23;;
3004;SDS011;1512;51.486;6.610;2023-04-07T09:25:57;14.40;;;8.53;;
3004;SDS011;1512;51.486;6.610;2023-04-07T09:30:13;18.47;;;10.50;;
3004;SDS011;1512;51.486;6.610;2023-04-07T09:34:26;17.27;;;9.93;;
3004;SDS011;1512;51.486;6.610;2023-04-07T09:38:38;21.03;;;9.50;;
3004;SDS011;1512;51.486;6.610;2023-04-07T09:42:47;16.67;;;8.97;;
3004;SDS011;1512;51.486;6.610;2023-04-07T09:46:57;12.73;;;7.47;;
3004;SDS011;1512;51.486;6.610;2023-04-07T09:51:07;17.93;;;8.63;;
3004;SDS011;1512;51.486;6.610;2023-04-07T09:55:23;17.70;;;7.43;;
3004;SDS011;1512;51.486;6.610;2023-04-07T09:59:29;11.63;;;7.70;;
3004;SDS011;1512;51.486;6.610;2023-04-07T10:03:39;11.87;;;6.63;;
3004;SDS011;1512;51.486;6.610;2023-04-07T10:07:49;20.40;;;9.33;;
3004;SDS011;1512;51.486;6.610;2023-04-07T10:11:58;17.87;;;8.80;;
3004;SDS011;1512;51.486;6.610;2023-04-07T10:16:07;9.80;;;7.40;;
3004;SDS011;1512;51.486;6.610;2023-04-07T10:20:16;13.17;;;7.80;;
3004;SDS011;1512;51.486;6.610;2023-04-07T10:29:05;17.20;;;9.03;;
3004;SDS011;1512;51.486;6.610;2023-04-07T10:33:15;15.80;;;7.73;;
3004;SDS011;1512;51.486;6.610;2023-04-07T10:37:24;10.30;;;7.03;;
3004;SDS011;1512;51.486;6.610;2023-04-07T10:41:54;12.00;;;7.13;;
3004;SDS011;1512;51.486;6.610;2023-04-07T10:46:03;17.00;;;8.90;;
3004;SDS011;1512;51.486;6.610;2023-04-07T10:50:21;11.73;;;6.10;;
3004;SDS011;1512;51.486;6.610;2023-04-07T10:54:31;15.00;;;7.73;;
3004;SDS011;1512;51.486;6.610;2023-04-07T10:58:39;13.10;;;7.03;;
3004;SDS011;1512;51.486;6.610;2023-04-07T11:02:48;13.10;;;9.57;;
3004;SDS011;1512;51.486;6.610;2023-04-07T11:06:57;14.37;;;7.97;;
3004;SDS011;1512;51.486;6.610;2023-04-07T11:11:07;11.00;;;7.23;;
3004;SDS011;1512;51.486;6.610;2023-04-07T11:15:21;13.57;;;7.70;;
3004;SDS011;1512;51.486;6.610;2023-04-07T11:19:48;12.17;;;7.87;;
3004;SDS011;1512;51.486;6.610;2023-04-07T11:23:42;20.03;;;9.03;;
3004;SDS011;1512;51.486;6.610;2023-04-07T11:27:52;14.33;;;8.83;;
3004;SDS011;1512;51.486;6.610;2023-04-07T11:32:01;14.13;;;8.35;;
3004;SDS011;1512;51.486;6.610;2023-04-07T11:36:11;13.73;;;8.73;;
3004;SDS011;1512;51.486;6.610;2023-04-07T11:40:33;18.50;;;9.27;;
3004;SDS011;1512;51.486;6.610;2023-04-07T11:44:44;12.93;;;8.77;;
3004;SDS011;1512;51.486;6.610;2023-04-07T11:48:53;16.00;;;10.50;;
3004;SDS011;1512;51.486;6.610;2023-04-07T11:53:01;15.50;;;9.60;;
3004;SDS011;1512;51.486;6.610;2023-04-07T11:57:10;18.63;;;10.87;;
3004;SDS011;1512;51.486;6.610;2023-04-07T12:01:20;25.73;;;9.50;;
3004;SDS011;1512;51.486;6.610;2023-04-07T12:05:40;15.27;;;9.57;;
3004;SDS011;1512;51.486;6.610;2023-04-07T12:09:50;17.33;;;10.17;;
3004;SDS011;1512;51.486;6.610;2023-04-07T12:14:00;17.77;;;9.60;;
3004;SDS011;1512;51.486;6.610;2023-04-07T12:18:14;16.90;;;10.00;;
3004;SDS011;1512;51.486;6.610;2023-04-07T12:22:23;19.80;;;11.17;;
3004;SDS011;1512;51.486;6.610;2023-04-07T12:26:32;15.73;;;9.20;;
3004;SDS011;1512;51.486;6.610;2023-04-07T12:30:42;15.50;;;9.80;;
3004;SDS011;1512;51.486;6.610;2023-04-07T12:34:51;17.63;;;8.77;;
3004;SDS011;1512;51.486;6.610;2023-04-07T12:38:59;13.10;;;9.63;;
3004;SDS011;1512;51.486;6.610;2023-04-07T12:43:08;13.47;;;7.87;;
3004;SDS011;1512;51.486;6.610;2023-04-07T12:47:17;11.20;;;7.40;;
3004;SDS011;1512;51.486;6.610;2023-04-07T12:51:26;10.77;;;7.23;;
3004;SDS011;1512;51.486;6.610;2023-04-07T12:55:35;8.13;;;6.10;;
3004;SDS011;1512;51.486;6.610;2023-04-07T12:59:43;13.97;;;7.13;;
3004;SDS011;1512;51.486;6.610;2023-04-07T13:03:52;10.00;;;7.90;;
3004;SDS011;1512;51.486;6.610;2023-04-07T13:08:01;11.60;;;6.60;;
3004;SDS011;1512;51.486;6.610;2023-04-07T13:12:11;17.20;;;8.67;;
3004;SDS011;1512;51.486;6.610;2023-04-07T13:16:41;12.23;;;7.57;;
3004;SDS011;1512;51.486;6.610;2023-04-07T13:20:50;11.73;;;8.23;;
3004;SDS011;1512;51.486;6.610;2023-04-07T13:25:00;19.50;;;8.03;;
3004;SDS011;1512;51.486;6.610;2023-04-07T13:29:09;11.90;;;8.23;;
3004;SDS011;1512;51.486;6.610;2023-04-07T13:33:19;14.33;;;9.03;;
3004;SDS011;1512;51.486;6.610;2023-04-07T13:37:28;12.47;;;8.37;;
3004;SDS011;1512;51.486;6.610;2023-04-07T13:41:37;14.37;;;8.73;;
3004;SDS011;1512;51.486;6.610;2023-04-07T13:45:46;17.67;;;7.77;;
3004;SDS011;1512;51.486;6.610;2023-04-07T13:49:56;16.00;;;8.73;;
3004;SDS011;1512;51.486;6.610;2023-04-07T13:54:05;16.33;;;8.97;;
3004;SDS011;1512;51.486;6.610;2023-04-07T13:58:13;13.73;;;8.67;;
3004;SDS011;1512;51.486;6.610;2023-04-07T14:02:22;31.87;;;11.00;;
3004;SDS011;1512;51.486;6.610;2023-04-07T14:06:33;21.60;;;9.77;;
3004;SDS011;1512;51.486;6.610;2023-04-07T14:10:43;13.08;;;9.15;;
3004;SDS011;1512;51.486;6.610;2023-04-07T14:14:52;24.10;;;13.43;;
3004;SDS011;1512;51.486;6.610;2023-04-07T14:19:01;15.67;;;10.50;;
3004;SDS011;1512;51.486;6.610;2023-04-07T14:23:10;20.33;;;10.70;;
3004;SDS011;1512;51.486;6.610;2023-04-07T14:27:20;17.53;;;10.90;;
3004;SDS011;1512;51.486;6.610;2023-04-07T14:31:29;22.40;;;11.27;;
3004;SDS011;1512;51.486;6.610;2023-04-07T14:35:38;18.40;;;11.10;;
3004;SDS011;1512;51.486;6.610;2023-04-07T14:39:47;20.57;;;11.33;;
3004;SDS011;1512;51.486;6.610;2023-04-07T14:43:59;17.20;;;10.50;;
3004;SDS011;1512;51.486;6.610;2023-04-07T14:48:10;16.57;;;9.63;;
3004;SDS011;1512;51.486;6.610;2023-04-07T14:52:19;18.52;;;9.60;;
3004;SDS011;1512;51.486;6.610;2023-04-07T14:56:28;19.60;;;10.23;;
3004;SDS011;1512;51.486;6.610;2023-04-07T15:00:37;15.93;;;9.30;;
3004;SDS011;1512;51.486;6.610;2023-04-07T15:04:45;16.57;;;10.30;;
3004;SDS011;1512;51.486;6.610;2023-04-07T15:08:54;15.13;;;9.90;;
3004;SDS011;1512;51.486;6.610;2023-04-07T15:13:03;10.67;;;9.17;;
3004;SDS011;1512;51.486;6.610;2023-04-07T15:17:12;12.10;;;8.57;;
3004;SDS011;1512;51.486;6.610;2023-04-07T15:21:21;17.17;;;9.63;;
3004;SDS011;1512;51.486;6.610;2023-04-07T15:25:29;13.87;;;8.63;;
3004;SDS011;1512;51.486;6.610;2023-04-07T15:29:38;15.67;;;9.67;;
3004;SDS011;1512;51.486;6.610;2023-04-07T15:33:48;11.97;;;8.30;;
3004;SDS011;1512;51.486;6.610;2023-04-07T15:37:57;15.57;;;8.83;;
3004;SDS011;1512;51.486;6.610;2023-04-07T15:42:06;15.50;;;9.13;;
3004;SDS011;1512;51.486;6.610;2023-04-07T15:46:16;17.90;;;8.27;;
3004;SDS011;1512;51.486;6.610;2023-04-07T15:50:25;14.70;;;8.20;;
3004;SDS011;1512;51.486;6.610;2023-04-07T15:54:36;14.33;;;8.33;;
3004;SDS011;1512;51.486;6.610;2023-04-07T15:58:44;15.00;;;9.30;;
3004;SDS011;1512;51.486;6.610;2023-04-07T16:02:53;18.23;;;9.33;;
3004;SDS011;1512;51.486;6.610;2023-04-07T16:07:02;12.07;;;8.67;;
3004;SDS011;1512;51.486;6.610;2023-04-07T16:11:11;16.10;;;7.90;;
3004;SDS011;1512;51.486;6.610;2023-04-07T16:15:20;16.30;;;9.57;;
3004;SDS011;1512;51.486;6.610;2023-04-07T16:19:30;17.47;;;9.80;;
3004;SDS011;1512;51.486;6.610;2023-04-07T16:23:39;12.60;;;8.47;;
3004;SDS011;1512;51.486;6.610;2023-04-07T16:27:47;12.60;;;8.37;;
3004;SDS011;1512;51.486;6.610;2023-04-07T16:31:58;16.47;;;11.80;;
3004;SDS011;1512;51.486;6.610;2023-04-07T16:36:07;11.53;;;8.27;;
3004;SDS011;1512;51.486;6.610;2023-04-07T16:40:16;15.63;;;10.00;;
3004;SDS011;1512;51.486;6.610;2023-04-07T16:44:24;16.53;;;10.00;;
3004;SDS011;1512;51.486;6.610;2023-04-07T16:48:33;11.93;;;9.20;;
3004;SDS011;1512;51.486;6.610;2023-04-07T16:52:42;11.70;;;8.07;;
3004;SDS011;1512;51.486;6.610;2023-04-07T16:56:52;10.90;;;8.43;;
3004;SDS011;1512;51.486;6.610;2023-04-07T17:01:01;12.20;;;9.20;;
3004;SDS011;1512;51.486;6.610;2023-04-07T17:05:10;15.33;;;10.53;;
3004;SDS011;1512;51.486;6.610;2023-04-07T17:09:18;19.50;;;10.17;;
3004;SDS011;1512;51.486;6.610;2023-04-07T17:13:27;12.77;;;9.20;;
3004;SDS011;1512;51.486;6.610;2023-04-07T17:17:36;17.00;;;9.83;;
3004;SDS011;1512;51.486;6.610;2023-04-07T17:21:45;18.03;;;12.10;;
3004;SDS011;1512;51.486;6.610;2023-04-07T17:25:53;37.87;;;27.40;;
3004;SDS011;1512;51.486;6.610;2023-04-07T17:30:02;16.90;;;15.10;;
3004;SDS011;1512;51.486;6.610;2023-04-07T17:34:13;26.83;;;20.37;;
3004;SDS011;1512;51.486;6.610;2023-04-07T17:38:21;29.57;;;19.93;;
3004;SDS011;1512;51.486;6.610;2023-04-07T17:42:30;20.93;;;13.77;;
3004;SDS011;1512;51.486;6.610;2023-04-07T17:46:39;15.33;;;12.67;;
3004;SDS011;1512;51.486;6.610;2023-04-07T17:50:48;16.47;;;12.50;;
3004;SDS011;1512;51.486;6.610;2023-04-07T17:54:56;30.97;;;19.60;;
3004;SDS011;1512;51.486;6.610;2023-04-07T17:59:05;30.43;;;14.87;;
3004;SDS011;1512;51.486;6.610;2023-04-07T18:03:13;23.77;;;14.27;;
3004;SDS011;1512;51.486;6.610;2023-04-07T18:07:22;21.07;;;14.60;;
3004;SDS011;1512;51.486;6.610;2023-04-07T18:11:31;18.03;;;11.77;;
3004;SDS011;1512;51.486;6.610;2023-04-07T18:15:39;23.17;;;12.07;;
3004;SDS011;1512;51.486;6.610;2023-04-07T18:19:49;15.50;;;10.00;;
3004;SDS011;1512;51.486;6.610;2023-04-07T18:23:57;13.90;;;9.60;;
3004;SDS011;1512;51.486;6.610;2023-04-07T18:28:06;19.83;;;11.50;;
3004;SDS011;1512;51.486;6.610;2023-04-07T18:32:15;19.97;;;11.60;;
3004;SDS011;1512;51.486;6.610;2023-04-07T18:36:23;20.40;;;10.95;;
3004;SDS011;1512;51.486;6.610;2023-04-07T18:40:33;14.73;;;10.47;;
3004;SDS011;1512;51.486;6.610;2023-04-07T18:44:42;22.37;;;12.47;;
3004;SDS011;1512;51.486;6.610;2023-04-07T18:48:50;21.03;;;11.90;;
3004;SDS011;1512;51.486;6.610;2023-04-07T18:53:00;21.60;;;11.90;;
3004;SDS011;1512;51.486;6.610;2023-04-07T18:57:09;21.57;;;11.60;;
3004;SDS011;1512;51.486;6.610;2023-04-07T19:01:17;18.90;;;10.57;;
3004;SDS011;1512;51.486;6.610;2023-04-07T19:05:27;24.63;;;14.10;;
3004;SDS011;1512;51.486;6.610;2023-04-07T19:09:35;16.53;;;11.50;;
3004;SDS011;1512;51.486;6.610;2023-04-07T19:13:45;22.00;;;11.67;;
3004;SDS011;1512;51.486;6.610;2023-04-07T19:17:55;17.13;;;13.10;;
3004;SDS011;1512;51.486;6.610;2023-04-07T19:22:04;15.60;;;11.37;;
3004;SDS011;1512;51.486;6.610;2023-04-07T19:26:13;19.57;;;13.73;;
3004;SDS011;1512;51.486;6.610;2023-04-07T19:30:22;19.90;;;12.37;;
3004;SDS011;1512;51.486;6.610;2023-04-07T19:34:31;14.20;;;10.63;;
3004;SDS011;1512;51.486;6.610;2023-04-07T19:38:40;27.30;;;11.80;;
3004;SDS011;1512;51.486;6.610;2023-04-07T19:42:49;21.60;;;13.53;;
3004;SDS011;1512;51.486;6.610;2023-04-07T19:46:57;22.50;;;12.10;;
3004;SDS011;1512;51.486;6.610;2023-04-07T19:51:06;19.30;;;12.47;;
3004;SDS011;1512;51.486;6.610;2023-04-07T19:55:14;21.93;;;12.03;;
3004;SDS011;1512;51.486;6.610;2023-04-07T19:59:23;27.77;;;13.70;;
3004;SDS011;1512;51.486;6.610;2023-04-07T20:03:32;21.33;;;13.27;;
3004;SDS011;1512;51.486;6.610;2023-04-07T20:07:41;24.67;;;13.03;;
3004;SDS011;1512;51.486;6.610;2023-04-07T20:11:50;22.40;;;12.87;;
3004;SDS011;1512;51.486;6.610;2023-04-07T20:16:00;26.33;;;12.68;;
3004;SDS011;1512;51.486;6.610;2023-04-07T20:20:10;30.93;;;12.17;;
3004;SDS011;1512;51.486;6.610;2023-04-07T20:24:18;22.57;;;13.03;;
3004;SDS011;1512;51.486;6.610;2023-04-07T20:28:27;17.40;;;11.87;;
3004;SDS011;1512;51.486;6.610;2023-04-07T20:32:36;21.63;;;12.87;;
3004;SDS011;1512;51.486;6.610;2023-04-07T20:36:46;20.03;;;12.77;;
3004;SDS011;1512;51.486;6.610;2023-04-07T20:40:55;20.93;;;12.70;;
3004;SDS011;1512;51.486;6.610;2023-04-07T20:45:03;21.23;;;13.08;;
3004;SDS011;1512;51.486;6.610;2023-04-07T20:49:13;28.13;;;13.47;;
3004;SDS011;1512;51.486;6.610;2023-04-07T20:53:22;19.70;;;12.03;;
3004;SDS011;1512;51.486;6.610;2023-04-07T20:57:30;23.23;;;12.33;;
3004;SDS011;1512;51.486;6.610;2023-04-07T21:01:39;24.83;;;11.33;;
3004;SDS011;1512;51.486;6.610;2023-04-07T21:05:48;20.83;;;12.43;;
3004;SDS011;1512;51.486;6.610;2023-04-07T21:09:57;22.80;;;14.37;;
3004;SDS011;1512;51.486;6.610;2023-04-07T21:14:05;21.53;;;12.50;;
3004;SDS011;1512;51.486;6.610;2023-04-07T21:18:14;25.93;;;14.27;;
3004;SDS011;1512;51.486;6.610;2023-04-07T21:22:24;25.07;;;13.27;;
3004;SDS011;1512;51.486;6.610;2023-04-07T21:26:33;21.23;;;13.33;;
3004;SDS011;1512;51.486;6.610;2023-04-07T21:30:42;22.07;;;12.80;;
3004;SDS011;1512;51.486;6.610;2023-04-07T21:34:51;22.73;;;14.00;;
3004;SDS011;1512;51.486;6.610;2023-04-07T21:39:00;25.10;;;15.67;;
3004;SDS011;1512;51.486;6.610;2023-04-07T21:43:09;23.53;;;14.20;;
3004;SDS011;1512;51.486;6.610;2023-04-07T21:47:18;25.43;;;13.50;;
3004;SDS011;1512;51.486;6.610;2023-04-07T21:51:27;24.03;;;13.97;;
3004;SDS011;1512;51.486;6.610;2023-04-07T21:55:35;27.17;;;13.90;;
3004;SDS011;1512;51.486;6.610;2023-04-07T21:59:46;24.87;;;14.87;;
3004;SDS011;1512;51.486;6.610;2023-04-07T22:03:54;19.90;;;13.87;;
3004;SDS011;1512;51.486;6.610;2023-04-07T22:08:06;23.47;;;11.97;;
3004;SDS011;1512;51.486;6.610;2023-04-07T22:12:16;18.60;;;12.10;;
3004;SDS011;1512;51.486;6.610;2023-04-07T22:16:25;20.20;;;12.67;;
3004;SDS011;1512;51.486;6.610;2023-04-07T22:20:36;20.73;;;12.57;;
3004;SDS011;1512;51.486;6.610;2023-04-07T22:24:45;22.00;;;12.23;;
3004;SDS011;1512;51.486;6.610;2023-04-07T22:28:53;21.70;;;13.70;;
3004;SDS011;1512;51.486;6.610;2023-04-07T22:33:02;17.90;;;12.40;;
3004;SDS011;1512;51.486;6.610;2023-04-07T22:37:13;24.70;;;13.03;;
3004;SDS011;1512;51.486;6.610;2023-04-07T22:41:21;21.13;;;12.97;;
3004;SDS011;1512;51.486;6.610;2023-04-07T22:45:30;16.67;;;11.93;;
3004;SDS011;1512;51.486;6.610;2023-04-07T22:49:39;22.00;;;13.37;;
3004;SDS011;1512;51.486;6.610;2023-04-07T22:53:48;24.17;;;13.93;;
3004;SDS011;1512;51.486;6.610;2023-04-07T22:57:56;23.73;;;13.20;;
3004;SDS011;1512;51.486;6.610;2023-04-07T23:02:05;21.87;;;13.17;;
3004;SDS011;1512;51.486;6.610;2023-04-07T23:06:14;26.97;;;14.20;;
3004;SDS011;1512;51.486;6.610;2023-04-07T23:10:22;23.17;;;14.30;;
3004;SDS011;1512;51.486;6.610;2023-04-07T23:14:31;13.50;;;10.83;;
3004;SDS011;1512;51.486;6.610;2023-04-07T23:18:40;19.73;;;14.30;;
3004;SDS011;1512;51.486;6.610;2023-04-07T23:22:49;23.93;;;14.53;;
3004;SDS011;1512;51.486;6.610;2023-04-07T23:26:58;25.17;;;15.47;;
3004;SDS011;1512;51.486;6.610;2023-04-07T23:31:07;19.67;;;14.30;;
3004;SDS011;1512;51.486;6.610;2023-04-07T23:35:16;20.20;;;11.70;;
3004;SDS011;1512;51.486;6.610;2023-04-07T23:39:25;22.07;;;13.50;;
3004;SDS011;1512;51.486;6.610;2023-04-07T23:43:34;21.00;;;11.83;;
3004;SDS011;1512;51.486;6.610;2023-04-07T23:47:43;20.47;;;13.20;;
3004;SDS011;1512;51.486;6.610;2023-04-07T23:51:52;16.33;;;12.00;;
3004;SDS011;1512;51.486;6.610;2023-04-07T23:56:01;19.40;;;13.73;;
